createdAt,value
2017-11-12T00:00:38.282Z,1001.27
2017-11-12T00:01:38.192Z,1001.29
2017-11-12T00:03:31.441Z,1001.26
2017-11-12T00:04:31.374Z,1001.25
2017-11-12T00:06:24.647Z,1001.23
2017-11-12T00:07:24.552Z,1001.18
2017-11-12T00:09:17.797Z,1001.19
2017-11-12T00:10:17.721Z,1001.21
2017-11-12T00:12:10.991Z,1001.16
2017-11-12T00:13:10.898Z,1001.14
2017-11-12T00:15:04.175Z,1001.13
2017-11-12T00:16:04.083Z,1001.09
2017-11-12T00:17:57.364Z,1001.13
2017-11-12T00:18:57.294Z,1001.11
2017-11-12T00:20:50.562Z,1001.11
2017-11-12T00:21:50.470Z,1001.10
2017-11-12T00:23:43.723Z,1001.09
2017-11-12T00:24:43.648Z,1001.07
2017-11-12T00:26:36.921Z,1001.04
2017-11-12T00:27:36.830Z,1001.01
2017-11-12T00:29:30.076Z,1001.03
2017-11-12T00:30:30.007Z,1001.00
2017-11-12T00:32:23.274Z,1001.01
2017-11-12T00:33:23.182Z,1000.97
2017-11-12T00:35:16.454Z,1001.02
2017-11-12T00:36:16.362Z,1001.02
2017-11-12T00:38:09.613Z,1001.06
2017-11-12T00:39:09.546Z,1001.04
2017-11-12T00:41:02.812Z,1001.06
2017-11-12T00:42:02.720Z,1001.06
2017-11-12T00:43:55.974Z,1001.01
2017-11-12T00:44:55.905Z,1001.00
2017-11-12T00:46:49.175Z,1000.99
2017-11-12T00:47:49.085Z,1001.02
2017-11-12T00:49:42.328Z,1001.05
2017-11-12T00:50:42.256Z,1001.01
2017-11-12T00:52:35.525Z,1001.00
2017-11-12T00:53:35.443Z,1001.02
2017-11-12T00:55:28.705Z,1000.96
2017-11-12T00:56:28.614Z,1000.99
2017-11-12T00:58:21.878Z,1000.94
2017-11-12T00:59:21.797Z,1000.92
2017-11-12T01:01:15.063Z,1000.90
2017-11-12T01:02:14.974Z,1000.91
2017-11-12T01:04:08.221Z,1000.89
2017-11-12T01:05:08.140Z,1000.85
2017-11-12T01:07:01.409Z,1000.89
2017-11-12T01:08:01.348Z,1000.82
2017-11-12T01:09:54.574Z,1000.83
2017-11-12T01:10:54.497Z,1000.83
2017-11-12T01:12:47.760Z,1000.80
2017-11-12T01:13:47.668Z,1000.80
2017-11-12T01:15:40.939Z,1000.81
2017-11-12T01:16:40.850Z,1000.76
2017-11-12T01:18:34.101Z,1000.83
2017-11-12T01:19:34.030Z,1000.82
2017-11-12T01:21:27.381Z,1000.74
2017-11-12T01:22:27.289Z,1000.78
2017-11-12T01:24:20.539Z,1000.80
2017-11-12T01:25:20.459Z,1000.77
2017-11-12T01:27:13.722Z,1000.82
2017-11-12T01:28:13.624Z,1000.79
2017-11-12T01:30:06.891Z,1000.78
2017-11-12T01:31:06.803Z,1000.78
2017-11-12T01:33:00.067Z,1000.77
2017-11-12T01:33:59.970Z,1000.81
2017-11-12T01:35:53.244Z,1000.77
2017-11-12T01:36:53.153Z,1000.72
2017-11-12T01:38:46.398Z,1000.74
2017-11-12T01:39:46.336Z,1000.77
2017-11-12T01:41:39.598Z,1000.82
2017-11-12T01:42:39.505Z,1000.82
2017-11-12T01:44:32.748Z,1000.79
2017-11-12T01:45:32.679Z,1000.74
2017-11-12T01:47:25.942Z,1000.76
2017-11-12T01:48:25.854Z,1000.74
2017-11-12T01:50:19.094Z,1000.72
2017-11-12T01:51:19.018Z,1000.73
2017-11-12T01:53:12.292Z,1000.73
2017-11-12T01:54:12.200Z,1000.71
2017-11-12T01:56:05.470Z,1000.75
2017-11-12T01:57:05.381Z,1000.71
2017-11-12T01:58:58.620Z,1000.65
2017-11-12T01:59:58.547Z,1000.63
2017-11-12T02:01:51.819Z,1000.60
2017-11-12T02:02:51.736Z,1000.58
2017-11-12T02:04:44.978Z,1000.58
2017-11-12T02:05:44.905Z,1000.61
2017-11-12T02:07:38.178Z,1000.55
2017-11-12T02:08:38.116Z,1000.57
2017-11-12T02:10:31.363Z,1000.59
2017-11-12T02:11:31.290Z,1000.56
2017-11-12T02:13:24.565Z,1000.55
2017-11-12T02:14:24.469Z,1000.50
2017-11-12T02:16:17.730Z,1000.48
2017-11-12T02:17:17.640Z,1000.45
2017-11-12T02:19:10.882Z,1000.39
2017-11-12T02:20:10.807Z,1000.29
2017-11-12T02:22:04.078Z,1000.28
2017-11-12T02:23:03.985Z,1000.27
2017-11-12T02:24:57.238Z,1000.29
2017-11-12T02:25:57.164Z,1000.23
2017-11-12T02:27:50.430Z,1000.20
2017-11-12T02:28:50.336Z,1000.20
2017-11-12T02:30:43.584Z,1000.22
2017-11-12T02:31:43.512Z,1000.22
2017-11-12T02:33:36.784Z,1000.25
2017-11-12T02:34:36.691Z,1000.20
2017-11-12T02:36:29.961Z,1000.15
2017-11-12T02:37:29.871Z,1000.20
2017-11-12T02:39:23.114Z,1000.16
2017-11-12T02:40:23.046Z,1000.18
2017-11-12T02:42:16.309Z,1000.17
2017-11-12T02:43:16.220Z,1000.17
2017-11-12T02:45:09.476Z,1000.14
2017-11-12T02:46:09.404Z,1000.17
2017-11-12T02:48:02.692Z,1000.15
2017-11-12T02:49:02.577Z,1000.14
2017-11-12T02:50:55.831Z,1000.06
2017-11-12T02:51:55.755Z,1000.12
2017-11-12T02:53:49.028Z,1000.09
2017-11-12T02:54:48.937Z,1000.11
2017-11-12T02:56:42.207Z,1000.12
2017-11-12T02:57:42.117Z,1000.11
2017-11-12T02:59:35.366Z,1000.17
2017-11-12T03:00:35.297Z,1000.15
2017-11-12T03:02:28.571Z,1000.11
2017-11-12T03:03:28.477Z,1000.11
2017-11-12T03:05:21.726Z,1000.08
2017-11-12T03:06:21.656Z,1000.12
2017-11-12T03:08:14.928Z,1000.06
2017-11-12T03:09:14.838Z,1000.11
2017-11-12T03:11:08.086Z,1000.08
2017-11-12T03:12:08.013Z,1000.10
2017-11-12T03:14:01.284Z,1000.09
2017-11-12T03:15:01.195Z,1000.07
2017-11-12T03:16:54.464Z,1000.05
2017-11-12T03:17:54.374Z,1000.05
2017-11-12T03:19:47.617Z,999.99
2017-11-12T03:20:47.544Z,999.94
2017-11-12T03:22:40.818Z,1000.00
2017-11-12T03:23:40.722Z,999.95
2017-11-12T03:25:33.983Z,999.92
2017-11-12T03:26:33.906Z,999.97
2017-11-12T03:28:27.168Z,999.87
2017-11-12T03:29:27.074Z,999.83
2017-11-12T03:31:20.331Z,999.82
2017-11-12T03:32:20.256Z,999.81
2017-11-12T03:34:13.526Z,999.78
2017-11-12T03:35:13.440Z,999.77
2017-11-12T03:37:06.716Z,999.73
2017-11-12T03:38:06.626Z,999.74
2017-11-12T03:39:59.870Z,999.70
2017-11-12T03:40:59.798Z,999.70
2017-11-12T03:42:53.067Z,999.67
2017-11-12T03:43:52.974Z,999.68
2017-11-12T03:45:46.226Z,999.65
2017-11-12T03:46:46.153Z,999.68
2017-11-12T03:48:39.428Z,999.65
2017-11-12T03:49:39.333Z,999.65
2017-11-12T03:51:32.617Z,999.61
2017-11-12T03:52:32.543Z,999.59
2017-11-12T03:54:25.816Z,999.64
2017-11-12T03:55:25.721Z,999.65
2017-11-12T03:57:18.993Z,999.65
2017-11-12T03:58:18.898Z,999.64
2017-11-12T04:00:12.152Z,999.59
2017-11-12T04:01:12.081Z,999.56
2017-11-12T04:03:05.381Z,999.58
2017-11-12T04:04:05.287Z,999.57
2017-11-12T04:05:58.540Z,999.58
2017-11-12T04:06:58.466Z,999.62
2017-11-12T04:08:51.730Z,999.57
2017-11-12T04:09:51.639Z,999.54
2017-11-12T04:11:44.892Z,999.49
2017-11-12T04:12:44.818Z,999.46
2017-11-12T04:14:38.092Z,999.45
2017-11-12T04:15:37.996Z,999.41
2017-11-12T04:17:31.257Z,999.38
2017-11-12T04:18:31.166Z,999.39
2017-11-12T04:20:24.417Z,999.41
2017-11-12T04:21:24.345Z,999.44
2017-11-12T04:23:17.615Z,999.44
2017-11-12T04:24:17.526Z,999.40
2017-11-12T04:26:10.777Z,999.37
2017-11-12T04:27:10.708Z,999.31
2017-11-12T04:29:03.964Z,999.24
2017-11-12T04:30:03.874Z,999.23
2017-11-12T04:31:57.125Z,999.18
2017-11-12T04:32:57.053Z,999.14
2017-11-12T04:34:50.322Z,999.08
2017-11-12T04:35:50.233Z,999.08
2017-11-12T04:37:43.520Z,999.07
2017-11-12T04:38:43.412Z,999.06
2017-11-12T04:40:36.668Z,999.10
2017-11-12T04:41:36.596Z,999.04
2017-11-12T04:43:29.869Z,999.00
2017-11-12T04:44:29.773Z,999.02
2017-11-12T04:46:23.029Z,999.03
2017-11-12T04:47:22.960Z,998.99
2017-11-12T04:49:16.220Z,998.94
2017-11-12T04:50:16.130Z,998.95
2017-11-12T04:52:09.389Z,998.96
2017-11-12T04:53:09.311Z,998.89
2017-11-12T04:55:02.600Z,998.89
2017-11-12T04:56:02.491Z,998.82
2017-11-12T04:57:55.768Z,998.82
2017-11-12T04:58:55.670Z,998.73
2017-11-12T05:00:48.923Z,998.61
2017-11-12T05:01:48.853Z,998.62
2017-11-12T05:03:42.123Z,998.55
2017-11-12T05:04:42.030Z,998.62
2017-11-12T05:06:35.285Z,998.58
2017-11-12T05:07:35.213Z,998.62
2017-11-12T05:09:28.477Z,998.59
2017-11-12T05:10:28.382Z,998.61
2017-11-12T05:12:21.636Z,998.65
2017-11-12T05:13:21.564Z,998.63
2017-11-12T05:15:14.837Z,998.57
2017-11-12T05:16:14.745Z,998.51
2017-11-12T05:18:08.023Z,998.44
2017-11-12T05:19:07.925Z,998.42
2017-11-12T05:21:01.178Z,998.43
2017-11-12T05:22:01.103Z,998.43
2017-11-12T05:23:54.382Z,998.43
2017-11-12T05:24:54.288Z,998.44
2017-11-12T05:26:47.541Z,998.38
2017-11-12T05:27:47.467Z,998.37
2017-11-12T05:29:40.736Z,998.28
2017-11-12T05:30:40.639Z,998.28
2017-11-12T05:32:33.894Z,998.27
2017-11-12T05:33:33.821Z,998.31
2017-11-12T05:35:28.080Z,998.20
2017-11-12T05:36:27.990Z,998.19
2017-11-12T05:38:21.264Z,998.16
2017-11-12T05:39:21.167Z,998.17
2017-11-12T05:41:14.422Z,998.20
2017-11-12T05:42:14.351Z,998.15
2017-11-12T05:44:07.622Z,998.10
2017-11-12T05:45:07.530Z,998.04
2017-11-12T05:47:00.783Z,998.05
2017-11-12T05:48:00.712Z,998.02
2017-11-12T05:49:53.983Z,997.96
2017-11-12T05:50:53.890Z,997.93
2017-11-12T05:52:47.150Z,997.89
2017-11-12T05:53:47.072Z,997.87
2017-11-12T05:55:40.380Z,997.84
2017-11-12T05:56:40.288Z,997.86
2017-11-12T05:58:33.559Z,997.76
2017-11-12T05:59:33.468Z,997.76
2017-11-12T06:01:26.721Z,997.69
2017-11-12T06:02:26.650Z,997.58
2017-11-12T06:04:19.920Z,997.49
2017-11-12T06:05:19.826Z,997.47
2017-11-12T06:07:13.082Z,997.43
2017-11-12T06:08:13.010Z,997.44
2017-11-12T06:10:06.281Z,997.31
2017-11-12T06:11:06.189Z,997.31
2017-11-12T06:12:59.442Z,997.26
2017-11-12T06:13:59.370Z,997.24
2017-11-12T06:15:52.643Z,997.20
2017-11-12T06:16:52.549Z,997.16
2017-11-12T06:18:45.812Z,997.14
2017-11-12T06:19:45.719Z,997.10
2017-11-12T06:21:38.973Z,997.11
2017-11-12T06:22:38.901Z,997.07
2017-11-12T06:24:32.171Z,997.04
2017-11-12T06:25:32.081Z,997.04
2017-11-12T06:27:25.339Z,996.97
2017-11-12T06:28:25.269Z,996.92
2017-11-12T06:30:18.539Z,996.90
2017-11-12T06:31:18.448Z,996.85
2017-11-12T06:33:11.702Z,996.77
2017-11-12T06:34:11.633Z,996.79
2017-11-12T06:36:04.899Z,996.72
2017-11-12T06:37:04.810Z,996.73
2017-11-12T06:38:58.082Z,996.67
2017-11-12T06:39:57.981Z,996.70
2017-11-12T06:41:51.238Z,996.66
2017-11-12T06:42:51.170Z,996.64
2017-11-12T06:44:44.437Z,996.66
2017-11-12T06:45:44.349Z,996.71
2017-11-12T06:47:37.602Z,996.74
2017-11-12T06:48:37.531Z,996.70
2017-11-12T06:50:30.805Z,996.64
2017-11-12T06:51:30.712Z,996.65
2017-11-12T06:53:23.963Z,996.62
2017-11-12T06:54:23.891Z,996.60
2017-11-12T06:56:17.164Z,996.54
2017-11-12T06:57:17.083Z,996.52
2017-11-12T06:59:10.381Z,996.45
2017-11-12T07:00:10.289Z,996.47
2017-11-12T07:02:03.545Z,996.35
2017-11-12T07:03:03.473Z,996.34
2017-11-12T07:04:56.745Z,996.29
2017-11-12T07:05:56.659Z,996.30
2017-11-12T07:07:49.912Z,996.24
2017-11-12T07:08:49.837Z,996.26
2017-11-12T07:10:43.119Z,996.27
2017-11-12T07:11:43.020Z,996.27
2017-11-12T07:13:36.376Z,996.23
2017-11-12T07:14:36.290Z,996.24
2017-11-12T07:16:29.567Z,996.16
2017-11-12T07:17:29.477Z,996.17
2017-11-12T07:19:22.738Z,996.17
2017-11-12T07:20:22.650Z,996.14
2017-11-12T07:22:15.904Z,996.13
2017-11-12T07:23:15.834Z,996.16
2017-11-12T07:25:09.108Z,996.16
2017-11-12T07:26:09.015Z,996.16
2017-11-12T07:28:02.271Z,996.13
2017-11-12T07:29:02.200Z,996.14
2017-11-12T07:30:55.471Z,996.09
2017-11-12T07:31:55.380Z,996.07
2017-11-12T07:33:48.632Z,996.02
2017-11-12T07:34:48.563Z,996.03
2017-11-12T07:36:41.835Z,996.00
2017-11-12T07:37:41.745Z,996.02
2017-11-12T07:39:35.008Z,995.98
2017-11-12T07:40:34.917Z,995.97
2017-11-12T07:42:28.169Z,995.93
2017-11-12T07:43:28.096Z,995.98
2017-11-12T07:45:21.370Z,995.98
2017-11-12T07:46:21.278Z,996.00
2017-11-12T07:48:14.527Z,996.02
2017-11-12T07:49:14.462Z,996.04
2017-11-12T07:51:07.736Z,996.02
2017-11-12T07:52:07.644Z,996.01
2017-11-12T07:54:00.904Z,995.95
2017-11-12T07:55:00.826Z,995.92
2017-11-12T07:56:54.101Z,995.92
2017-11-12T07:57:54.010Z,995.93
2017-11-12T07:59:47.274Z,995.94
2017-11-12T08:00:47.184Z,995.93
2017-11-12T08:02:40.436Z,995.89
2017-11-12T08:03:40.367Z,995.83
2017-11-12T08:05:33.637Z,995.81
2017-11-12T08:06:33.550Z,995.78
2017-11-12T08:08:26.801Z,995.82
2017-11-12T08:09:26.731Z,995.79
2017-11-12T08:11:20.004Z,995.76
2017-11-12T08:12:19.913Z,995.83
2017-11-12T08:14:13.167Z,995.78
2017-11-12T08:15:13.096Z,995.81
2017-11-12T08:17:06.388Z,995.74
2017-11-12T08:18:06.295Z,995.75
2017-11-12T08:19:59.566Z,995.73
2017-11-12T08:20:59.477Z,995.73
2017-11-12T08:22:52.733Z,995.77
2017-11-12T08:23:52.659Z,995.75
2017-11-12T08:25:45.932Z,995.79
2017-11-12T08:26:45.841Z,995.79
2017-11-12T08:28:39.097Z,995.73
2017-11-12T08:29:39.024Z,995.67
2017-11-12T08:31:32.381Z,995.65
2017-11-12T08:32:32.291Z,995.61
2017-11-12T08:34:25.548Z,995.53
2017-11-12T08:35:25.477Z,995.59
2017-11-12T08:37:18.748Z,995.57
2017-11-12T08:38:18.656Z,995.51
2017-11-12T08:40:11.933Z,995.51
2017-11-12T08:41:11.837Z,995.45
2017-11-12T08:43:05.092Z,995.42
2017-11-12T08:44:05.024Z,995.42
2017-11-12T08:45:58.384Z,995.40
2017-11-12T08:46:58.291Z,995.34
2017-11-12T08:48:51.536Z,995.37
2017-11-12T08:49:51.464Z,995.38
2017-11-12T08:51:44.717Z,995.38
2017-11-12T08:52:44.637Z,995.40
2017-11-12T08:54:37.885Z,995.33
2017-11-12T08:55:37.814Z,995.33
2017-11-12T08:57:31.077Z,995.28
2017-11-12T08:58:30.986Z,995.30
2017-11-12T09:00:24.258Z,995.27
2017-11-12T09:01:24.166Z,995.26
2017-11-12T09:03:17.414Z,995.26
2017-11-12T09:04:17.342Z,995.24
2017-11-12T09:06:10.655Z,995.20
2017-11-12T09:07:10.518Z,995.25
2017-11-12T09:09:03.759Z,995.20
2017-11-12T09:10:03.692Z,995.18
2017-11-12T09:11:56.951Z,995.09
2017-11-12T09:12:56.861Z,995.04
2017-11-12T09:14:50.106Z,995.01
2017-11-12T09:15:50.033Z,994.98
2017-11-12T09:17:43.296Z,994.95
2017-11-12T09:18:43.205Z,994.94
2017-11-12T09:20:36.468Z,994.91
2017-11-12T09:21:36.377Z,994.87
2017-11-12T09:23:29.626Z,994.84
2017-11-12T09:24:29.559Z,994.74
2017-11-12T09:26:22.820Z,994.78
2017-11-12T09:27:22.731Z,994.78
2017-11-12T09:29:15.976Z,994.78
2017-11-12T09:30:15.929Z,994.78
2017-11-12T09:32:09.176Z,994.73
2017-11-12T09:33:09.075Z,994.69
2017-11-12T09:35:02.386Z,994.69
2017-11-12T09:36:02.294Z,994.64
2017-11-12T09:37:55.546Z,994.61
2017-11-12T09:38:55.473Z,994.58
2017-11-12T09:40:48.739Z,994.57
2017-11-12T09:41:48.652Z,994.55
2017-11-12T09:43:41.894Z,994.49
2017-11-12T09:44:41.815Z,994.50
2017-11-12T09:46:35.080Z,994.46
2017-11-12T09:47:34.993Z,994.43
2017-11-12T09:49:29.240Z,994.36
2017-11-12T09:50:29.168Z,994.29
2017-11-12T09:52:22.428Z,994.32
2017-11-12T09:53:22.338Z,994.32
2017-11-12T09:55:15.701Z,994.28
2017-11-12T09:56:15.523Z,994.33
2017-11-12T09:58:08.777Z,994.25
2017-11-12T09:59:08.705Z,994.23
2017-11-12T10:01:01.978Z,994.14
2017-11-12T10:02:01.893Z,994.11
2017-11-12T10:03:55.134Z,994.05
2017-11-12T10:04:55.062Z,994.00
2017-11-12T10:06:48.385Z,994.05
2017-11-12T10:07:48.293Z,994.01
2017-11-12T10:09:41.539Z,994.01
2017-11-12T10:10:41.467Z,994.02
2017-11-12T10:12:35.576Z,993.92
2017-11-12T10:13:35.485Z,993.91
2017-11-12T10:15:28.752Z,993.90
2017-11-12T10:16:28.660Z,993.89
2017-11-12T10:18:21.916Z,993.79
2017-11-12T10:19:21.837Z,993.85
2017-11-12T10:21:15.124Z,993.80
2017-11-12T10:22:15.024Z,993.82
2017-11-12T10:24:08.270Z,993.78
2017-11-12T10:25:08.195Z,993.76
2017-11-12T10:27:01.466Z,993.73
2017-11-12T10:28:01.375Z,993.72
2017-11-12T10:29:54.620Z,993.67
2017-11-12T10:30:54.544Z,993.70
2017-11-12T10:32:47.821Z,993.68
2017-11-12T10:33:47.732Z,993.66
2017-11-12T10:35:40.998Z,993.57
2017-11-12T10:36:40.906Z,993.55
2017-11-12T10:38:34.152Z,993.54
2017-11-12T10:39:34.079Z,993.45
2017-11-12T10:41:27.339Z,993.48
2017-11-12T10:42:27.251Z,993.41
2017-11-12T10:44:20.498Z,993.35
2017-11-12T10:45:20.432Z,993.36
2017-11-12T10:47:13.696Z,993.27
2017-11-12T10:48:13.593Z,993.26
2017-11-12T10:50:06.852Z,993.25
2017-11-12T10:51:06.788Z,993.19
2017-11-12T10:53:00.051Z,993.23
2017-11-12T10:53:59.971Z,993.21
2017-11-12T10:55:53.222Z,993.26
2017-11-12T10:56:53.133Z,993.17
2017-11-12T10:58:46.383Z,993.06
2017-11-12T10:59:46.307Z,993.05
2017-11-12T11:01:39.570Z,993.08
2017-11-12T11:02:39.478Z,993.05
2017-11-12T11:04:32.729Z,993.12
2017-11-12T11:05:32.657Z,993.08
2017-11-12T11:07:25.920Z,993.04
2017-11-12T11:08:25.827Z,993.07
2017-11-12T11:10:19.082Z,992.97
2017-11-12T11:11:19.012Z,992.94
2017-11-12T11:13:12.275Z,992.89
2017-11-12T11:14:12.185Z,992.86
2017-11-12T11:16:05.472Z,992.87
2017-11-12T11:17:05.377Z,992.90
2017-11-12T11:18:58.635Z,992.87
2017-11-12T11:19:58.554Z,992.88
2017-11-12T11:21:51.828Z,992.87
2017-11-12T11:22:51.737Z,992.87
2017-11-12T11:24:44.982Z,992.86
2017-11-12T11:25:44.913Z,992.83
2017-11-12T11:27:38.177Z,992.84
2017-11-12T11:28:38.078Z,992.88
2017-11-12T11:30:31.365Z,992.94
2017-11-12T11:31:31.290Z,992.92
2017-11-12T11:33:24.556Z,992.92
2017-11-12T11:34:24.464Z,992.87
2017-11-12T11:36:17.729Z,992.88
2017-11-12T11:37:17.636Z,992.81
2017-11-12T11:39:10.889Z,992.83
2017-11-12T11:40:10.812Z,992.78
2017-11-12T11:42:04.086Z,992.76
2017-11-12T11:43:03.996Z,992.77
2017-11-12T11:44:57.240Z,992.74
2017-11-12T11:45:57.170Z,992.69
2017-11-12T11:47:50.446Z,992.66
2017-11-12T11:48:50.358Z,992.66
2017-11-12T11:50:43.605Z,992.64
2017-11-12T11:51:43.532Z,992.52
2017-11-12T11:53:36.800Z,992.51
2017-11-12T11:54:36.713Z,992.48
2017-11-12T11:56:29.986Z,992.50
2017-11-12T11:57:29.897Z,992.46
2017-11-12T11:59:23.141Z,992.43
2017-11-12T12:00:23.069Z,992.45
2017-11-12T12:02:16.538Z,992.47
2017-11-12T12:03:16.448Z,992.51
2017-11-12T12:05:09.209Z,992.52
2017-11-12T12:06:09.137Z,992.54
2017-11-12T12:08:02.429Z,992.52
2017-11-12T12:09:02.326Z,992.52
2017-11-12T12:10:55.571Z,992.58
2017-11-12T12:11:55.499Z,992.60
2017-11-12T12:13:48.761Z,992.58
2017-11-12T12:14:48.663Z,992.57
2017-11-12T12:16:41.957Z,992.55
2017-11-12T12:17:41.854Z,992.48
2017-11-12T12:19:35.104Z,992.46
2017-11-12T12:20:35.050Z,992.47
2017-11-12T12:22:28.294Z,992.50
2017-11-12T12:23:28.221Z,992.42
2017-11-12T12:25:21.457Z,992.47
2017-11-12T12:26:21.382Z,992.50
2017-11-12T12:28:14.644Z,992.45
2017-11-12T12:29:14.558Z,992.48
2017-11-12T12:31:07.823Z,992.46
2017-11-12T12:32:07.751Z,992.45
2017-11-12T12:34:01.030Z,992.43
2017-11-12T12:35:00.983Z,992.43
2017-11-12T12:36:54.206Z,992.43
2017-11-12T12:37:54.116Z,992.38
2017-11-12T12:39:47.365Z,992.35
2017-11-12T12:40:47.298Z,992.37
2017-11-12T12:42:40.127Z,992.34
2017-11-12T12:43:40.002Z,992.30
2017-11-12T12:45:33.243Z,992.33
2017-11-12T12:46:33.176Z,992.28
2017-11-12T12:48:26.440Z,992.21
2017-11-12T12:49:26.349Z,992.27
2017-11-12T12:51:19.614Z,992.24
2017-11-12T12:52:19.525Z,992.24
2017-11-12T12:54:12.793Z,992.24
2017-11-12T12:55:12.696Z,992.26
2017-11-12T12:57:05.969Z,992.26
2017-11-12T12:58:05.881Z,992.28
2017-11-12T12:59:58.672Z,992.30
2017-11-12T13:00:58.583Z,992.30
2017-11-12T13:02:51.867Z,992.28
2017-11-12T13:03:51.771Z,992.29
2017-11-12T13:05:45.039Z,992.30
2017-11-12T13:06:44.968Z,992.33
2017-11-12T13:08:38.242Z,992.28
2017-11-12T13:09:38.146Z,992.24
2017-11-12T13:11:31.417Z,992.26
2017-11-12T13:12:31.325Z,992.24
2017-11-12T13:14:24.569Z,992.22
2017-11-12T13:15:24.501Z,992.24
2017-11-12T13:17:17.768Z,992.16
2017-11-12T13:18:17.679Z,992.17
2017-11-12T13:20:10.925Z,992.14
2017-11-12T13:21:10.862Z,992.15
2017-11-12T13:23:04.119Z,992.14
2017-11-12T13:24:04.030Z,992.13
2017-11-12T13:25:57.365Z,992.09
2017-11-12T13:26:57.293Z,992.09
2017-11-12T13:28:50.168Z,992.05
2017-11-12T13:29:50.067Z,992.08
2017-11-12T13:31:43.406Z,992.08
2017-11-12T13:32:43.295Z,992.04
2017-11-12T13:34:36.566Z,992.00
2017-11-12T13:35:36.490Z,992.04
2017-11-12T13:37:29.753Z,992.06
2017-11-12T13:38:29.662Z,992.09
2017-11-12T13:40:22.933Z,992.11
2017-11-12T13:41:22.861Z,992.12
2017-11-12T13:43:16.159Z,992.09
2017-11-12T13:44:16.032Z,992.12
2017-11-12T13:46:09.362Z,992.13
2017-11-12T13:47:09.293Z,992.13
2017-11-12T13:49:02.572Z,992.15
2017-11-12T13:50:02.494Z,992.13
2017-11-12T13:51:55.858Z,992.10
2017-11-12T13:52:55.671Z,992.11
2017-11-12T13:54:48.918Z,992.09
2017-11-12T13:55:48.848Z,992.11
2017-11-12T13:57:42.128Z,992.13
2017-11-12T13:58:42.029Z,992.13
2017-11-12T14:00:35.371Z,992.15
2017-11-12T14:01:35.299Z,992.12
2017-11-12T14:03:28.563Z,992.14
2017-11-12T14:04:28.474Z,992.13
2017-11-12T14:06:21.717Z,992.17
2017-11-12T14:07:21.653Z,992.14
2017-11-12T14:09:14.914Z,992.14
2017-11-12T14:10:14.826Z,992.13
2017-11-12T14:12:08.098Z,992.15
2017-11-12T14:13:08.004Z,992.14
2017-11-12T14:15:01.268Z,992.14
2017-11-12T14:16:01.178Z,992.17
2017-11-12T14:17:54.514Z,992.11
2017-11-12T14:18:54.368Z,992.18
2017-11-12T14:20:47.621Z,992.21
2017-11-12T14:21:47.551Z,992.20
2017-11-12T14:23:40.816Z,992.21
2017-11-12T14:24:40.726Z,992.23
2017-11-12T14:26:33.975Z,992.24
2017-11-12T14:27:33.903Z,992.23
2017-11-12T14:29:27.170Z,992.23
2017-11-12T14:30:27.079Z,992.19
2017-11-12T14:32:20.346Z,992.24
2017-11-12T14:33:20.257Z,992.22
2017-11-12T14:35:13.529Z,992.23
2017-11-12T14:36:13.431Z,992.23
2017-11-12T14:38:06.707Z,992.25
2017-11-12T14:39:06.622Z,992.29
2017-11-12T14:40:59.886Z,992.27
2017-11-12T14:41:59.792Z,992.29
2017-11-12T14:43:54.121Z,992.28
2017-11-12T14:44:53.969Z,992.31
2017-11-12T14:46:47.219Z,992.30
2017-11-12T14:47:47.151Z,992.34
2017-11-12T14:49:40.410Z,992.36
2017-11-12T14:50:40.323Z,992.37
2017-11-12T14:52:33.585Z,992.36
2017-11-12T14:53:33.496Z,992.36
2017-11-12T14:55:26.765Z,992.35
2017-11-12T14:56:26.708Z,992.29
2017-11-12T14:58:20.021Z,992.32
2017-11-12T14:59:19.879Z,992.34
2017-11-12T15:01:13.173Z,992.27
2017-11-12T15:02:13.080Z,992.30
2017-11-12T15:04:06.361Z,992.36
2017-11-12T15:05:06.280Z,992.35
2017-11-12T15:06:59.519Z,992.41
2017-11-12T15:07:59.450Z,992.45
2017-11-12T15:09:52.723Z,992.40
2017-11-12T15:10:52.632Z,992.41
2017-11-12T15:12:45.908Z,992.44
2017-11-12T15:13:45.815Z,992.42
2017-11-12T15:15:39.062Z,992.48
2017-11-12T15:16:38.989Z,992.42
2017-11-12T15:18:32.267Z,992.46
2017-11-12T15:19:32.174Z,992.46
2017-11-12T15:21:25.430Z,992.44
2017-11-12T15:22:25.356Z,992.49
2017-11-12T15:24:18.630Z,992.48
2017-11-12T15:25:18.548Z,992.49
2017-11-12T15:27:11.799Z,992.45
2017-11-12T15:28:11.727Z,992.47
2017-11-12T15:30:04.997Z,992.49
2017-11-12T15:31:04.910Z,992.48
2017-11-12T15:32:58.207Z,992.47
2017-11-12T15:33:58.102Z,992.50
2017-11-12T15:35:51.371Z,992.49
2017-11-12T15:36:51.309Z,992.47
2017-11-12T15:38:44.569Z,992.55
2017-11-12T15:39:44.520Z,992.50
2017-11-12T15:41:37.749Z,992.54
2017-11-12T15:42:37.673Z,992.55
2017-11-12T15:44:30.948Z,992.58
2017-11-12T15:45:30.854Z,992.55
2017-11-12T15:47:24.138Z,992.59
2017-11-12T15:48:24.037Z,992.63
2017-11-12T15:50:18.142Z,992.62
2017-11-12T15:51:18.071Z,992.59
2017-11-12T15:53:11.386Z,992.66
2017-11-12T15:54:11.292Z,992.67
2017-11-12T15:56:04.548Z,992.75
2017-11-12T15:57:04.480Z,992.78
2017-11-12T15:58:57.738Z,992.82
2017-11-12T15:59:57.648Z,992.83
2017-11-12T16:01:50.905Z,992.88
2017-11-12T16:02:50.834Z,992.86
2017-11-12T16:04:44.105Z,992.88
2017-11-12T16:05:44.014Z,992.92
2017-11-12T16:07:37.290Z,992.92
2017-11-12T16:08:37.197Z,992.90
2017-11-12T16:10:30.452Z,992.96
2017-11-12T16:11:30.384Z,992.96
2017-11-12T16:13:23.662Z,993.04
2017-11-12T16:14:23.575Z,993.07
2017-11-12T16:16:16.831Z,993.07
2017-11-12T16:17:16.766Z,993.10
2017-11-12T16:19:10.026Z,993.13
2017-11-12T16:20:09.936Z,993.11
2017-11-12T16:22:03.190Z,993.17
2017-11-12T16:23:03.128Z,993.16
2017-11-12T16:24:56.391Z,993.21
2017-11-12T16:25:56.303Z,993.26
2017-11-12T16:27:49.597Z,993.23
2017-11-12T16:28:49.488Z,993.26
2017-11-12T16:30:42.740Z,993.34
2017-11-12T16:31:42.667Z,993.38
2017-11-12T16:33:35.940Z,993.39
2017-11-12T16:34:35.852Z,993.39
2017-11-12T16:36:29.153Z,993.36
2017-11-12T16:37:29.079Z,993.44
2017-11-12T16:39:22.341Z,993.45
2017-11-12T16:40:22.252Z,993.45
2017-11-12T16:42:15.509Z,993.52
2017-11-12T16:43:15.437Z,993.56
2017-11-12T16:45:08.710Z,993.57
2017-11-12T16:46:08.619Z,993.57
2017-11-12T16:48:01.894Z,993.60
2017-11-12T16:49:01.795Z,993.63
2017-11-12T16:50:55.055Z,993.66
2017-11-12T16:51:54.985Z,993.71
2017-11-12T16:53:48.255Z,993.77
2017-11-12T16:54:48.169Z,993.75
2017-11-12T16:56:41.434Z,993.77
2017-11-12T16:57:41.349Z,993.75
2017-11-12T16:59:34.615Z,993.78
2017-11-12T17:00:34.523Z,993.80
2017-11-12T17:02:27.778Z,993.84
2017-11-12T17:03:27.705Z,993.84
2017-11-12T17:05:21.024Z,993.79
2017-11-12T17:06:20.887Z,993.87
2017-11-12T17:08:14.159Z,993.89
2017-11-12T17:09:14.069Z,993.94
2017-11-12T17:11:07.323Z,994.00
2017-11-12T17:12:07.251Z,993.98
2017-11-12T17:14:00.525Z,994.09
2017-11-12T17:15:00.433Z,994.10
2017-11-12T17:16:53.694Z,994.08
2017-11-12T17:17:53.616Z,994.13
2017-11-12T17:19:46.891Z,994.17
2017-11-12T17:20:46.803Z,994.19
2017-11-12T17:22:40.054Z,994.24
2017-11-12T17:23:39.980Z,994.27
2017-11-12T17:25:33.253Z,994.24
2017-11-12T17:26:33.159Z,994.32
2017-11-12T17:28:26.434Z,994.33
2017-11-12T17:29:26.344Z,994.36
2017-11-12T17:31:19.596Z,994.40
2017-11-12T17:32:19.524Z,994.49
2017-11-12T17:34:13.799Z,994.46
2017-11-12T17:35:13.709Z,994.54
2017-11-12T17:37:07.827Z,994.54
2017-11-12T17:38:07.737Z,994.53
2017-11-12T17:40:01.012Z,994.54
2017-11-12T17:41:00.911Z,994.56
2017-11-12T17:42:54.179Z,994.61
2017-11-12T17:43:54.107Z,994.64
2017-11-12T17:45:47.378Z,994.65
2017-11-12T17:46:47.286Z,994.70
2017-11-12T17:48:40.677Z,994.73
2017-11-12T17:49:40.473Z,994.78
2017-11-12T17:51:33.731Z,994.77
2017-11-12T17:52:33.655Z,994.78
2017-11-12T17:54:26.929Z,994.82